createdAt,value
2023-03-27T00:01:16.219Z,2.79
2023-03-27T00:03:17.836Z,2.74
2023-03-27T00:05:20.781Z,2.73
2023-03-27T00:07:22.672Z,2.69
2023-03-27T00:09:25.905Z,2.67
2023-03-27T00:11:28.357Z,2.65
2023-03-27T00:13:30.390Z,2.64
2023-03-27T00:15:33.902Z,2.61
2023-03-27T00:17:35.504Z,2.56
2023-03-27T00:19:36.974Z,2.50
2023-03-27T00:21:38.447Z,2.47
2023-03-27T00:23:40.523Z,2.42
2023-03-27T00:25:42.290Z,2.40
2023-03-27T00:27:44.942Z,2.38
2023-03-27T00:29:46.389Z,2.36
2023-03-27T00:31:48.029Z,2.34
2023-03-27T00:33:49.479Z,2.31
2023-03-27T00:35:51.825Z,2.26
2023-03-27T00:37:53.828Z,2.22
2023-03-27T00:39:55.771Z,2.19
2023-03-27T00:41:57.293Z,2.17
2023-03-27T00:43:58.965Z,2.16
2023-03-27T00:46:22.798Z,2.15
2023-03-27T00:48:25.742Z,2.12
2023-03-27T00:50:37.708Z,2.11
2023-03-27T00:52:41.793Z,2.11
2023-03-27T00:54:44.632Z,2.15
2023-03-27T00:56:46.188Z,2.19
2023-03-27T00:58:52.685Z,2.19
2023-03-27T01:00:56.310Z,2.20
2023-03-27T01:03:01.049Z,2.18
2023-03-27T01:05:02.867Z,2.15
2023-03-27T01:07:06.864Z,2.13
2023-03-27T01:09:09.386Z,2.09
2023-03-27T01:11:11.519Z,2.06
2023-03-27T01:13:36.481Z,2.04
2023-03-27T01:15:47.822Z,1.97
2023-03-27T01:18:30.710Z,1.96
2023-03-27T01:20:47.368Z,1.93
2023-03-27T01:23:35.842Z,1.91
2023-03-27T01:25:57.272Z,1.86
2023-03-27T01:28:36.931Z,1.85
2023-03-27T01:30:40.260Z,1.84
2023-03-27T01:32:56.726Z,1.87
2023-03-27T01:35:35.526Z,1.88
2023-03-27T01:38:07.022Z,1.91
2023-03-27T01:40:21.325Z,1.92
2023-03-27T01:42:25.800Z,1.92
2023-03-27T01:45:04.139Z,1.93
2023-03-27T01:47:30.677Z,1.91
2023-03-27T01:49:40.028Z,1.91
2023-03-27T01:51:50.060Z,1.91
2023-03-27T01:54:13.780Z,1.90
2023-03-27T01:56:32.726Z,1.91
2023-03-27T01:58:46.163Z,1.91
2023-03-27T02:00:53.598Z,1.89
2023-03-27T02:03:26.635Z,1.89
2023-03-27T02:06:01.699Z,1.88
2023-03-27T02:08:15.483Z,1.91
2023-03-27T02:10:25.197Z,1.90
2023-03-27T02:12:33.283Z,1.92
2023-03-27T02:14:46.342Z,1.93
2023-03-27T02:16:54.236Z,1.89
2023-03-27T02:19:05.042Z,1.86
2023-03-27T02:21:06.826Z,1.89
2023-03-27T02:23:08.384Z,1.90
2023-03-27T02:25:26.529Z,1.92
2023-03-27T02:27:42.559Z,1.91
2023-03-27T02:29:56.337Z,1.89
2023-03-27T02:32:19.127Z,1.87
2023-03-27T02:34:26.411Z,1.85
2023-03-27T02:36:55.053Z,1.85
2023-03-27T02:39:20.349Z,1.84
2023-03-27T02:41:41.804Z,1.83
2023-03-27T02:43:59.408Z,1.80
2023-03-27T02:46:14.863Z,1.81
2023-03-27T02:48:34.269Z,1.77
2023-03-27T02:50:52.075Z,1.77
2023-03-27T02:52:58.727Z,1.77
2023-03-27T02:55:09.262Z,1.75
2023-03-27T02:57:15.919Z,1.74
2023-03-27T02:59:25.484Z,1.71
2023-03-27T03:01:30.592Z,1.71
2023-03-27T03:03:48.940Z,1.70
2023-03-27T03:05:52.042Z,1.69
2023-03-27T03:07:54.406Z,1.69
2023-03-27T03:09:56.046Z,1.71
2023-03-27T03:11:58.024Z,1.71
2023-03-27T03:13:59.581Z,1.70
2023-03-27T03:16:01.167Z,1.70
2023-03-27T03:18:02.686Z,1.69
2023-03-27T03:20:05.725Z,1.67
2023-03-27T03:22:07.978Z,1.68
2023-03-27T03:24:10.378Z,1.69
2023-03-27T03:26:12.231Z,1.65
2023-03-27T03:28:13.955Z,1.65
2023-03-27T03:30:17.456Z,1.67
2023-03-27T03:32:19.260Z,1.65
2023-03-27T03:34:22.487Z,1.65
2023-03-27T03:36:23.985Z,1.62
2023-03-27T03:38:26.439Z,1.61
2023-03-27T03:40:27.909Z,1.57
2023-03-27T03:42:29.351Z,1.56
2023-03-27T03:44:31.333Z,1.55
2023-03-27T03:46:33.006Z,1.54
2023-03-27T03:48:34.517Z,1.56
2023-03-27T03:50:35.973Z,1.54
2023-03-27T03:52:37.824Z,1.53
2023-03-27T03:54:40.357Z,1.53
2023-03-27T03:56:41.918Z,1.51
2023-03-27T03:58:44.101Z,1.51
2023-03-27T04:00:47.097Z,1.48
2023-03-27T04:02:53.917Z,1.45
2023-03-27T04:04:59.796Z,1.44
2023-03-27T04:07:01.269Z,1.40
2023-03-27T04:09:02.803Z,1.38
2023-03-27T04:11:05.070Z,1.37
2023-03-27T04:13:06.799Z,1.36
2023-03-27T04:15:09.334Z,1.35
2023-03-27T04:17:11.444Z,1.32
2023-03-27T04:19:13.033Z,1.31
2023-03-27T04:21:14.850Z,1.30
2023-03-27T04:23:20.152Z,1.29
2023-03-27T04:25:24.522Z,1.30
2023-03-27T04:27:30.417Z,1.29
2023-03-27T04:29:31.924Z,1.31
2023-03-27T04:31:34.594Z,1.31
2023-03-27T04:33:46.310Z,1.29
2023-03-27T04:36:06.873Z,1.29
2023-03-27T04:38:09.179Z,1.26
2023-03-27T04:40:17.976Z,1.25
2023-03-27T04:42:23.463Z,1.23
2023-03-27T04:44:25.000Z,1.21
2023-03-27T04:46:26.558Z,1.21
2023-03-27T04:48:29.700Z,1.20
2023-03-27T04:50:31.796Z,1.16
2023-03-27T04:52:33.625Z,1.13
2023-03-27T04:54:35.761Z,1.11
2023-03-27T04:56:37.256Z,1.10
2023-03-27T04:58:41.456Z,1.08
2023-03-27T05:00:43.840Z,1.05
2023-03-27T05:02:47.621Z,1.07
2023-03-27T05:04:49.314Z,1.07
2023-03-27T05:06:50.815Z,1.06
2023-03-27T05:08:52.384Z,1.03
2023-03-27T05:10:54.049Z,0.99
2023-03-27T05:12:57.895Z,0.94
2023-03-27T05:15:00.552Z,0.90
2023-03-27T05:17:02.395Z,0.86
2023-03-27T05:19:03.875Z,0.85
2023-03-27T05:21:05.632Z,0.83
2023-03-27T05:23:07.362Z,0.83
2023-03-27T05:25:09.400Z,0.80
2023-03-27T05:27:10.897Z,0.78
2023-03-27T05:29:12.415Z,0.78
2023-03-27T05:31:13.963Z,0.77
2023-03-27T05:33:17.538Z,0.75
2023-03-27T05:35:22.534Z,0.77
2023-03-27T05:37:25.449Z,0.78
2023-03-27T05:39:28.502Z,0.79
2023-03-27T05:41:30.299Z,0.81
2023-03-27T05:43:32.168Z,0.84
2023-03-27T05:45:34.018Z,0.86
2023-03-27T05:47:44.584Z,0.87
2023-03-27T05:49:46.068Z,0.88
2023-03-27T05:51:47.897Z,0.93
2023-03-27T05:53:49.345Z,0.98
2023-03-27T05:55:50.830Z,1.02
2023-03-27T05:58:06.564Z,1.04
2023-03-27T06:00:11.652Z,1.11
2023-03-27T06:02:14.190Z,1.14
2023-03-27T06:04:17.970Z,1.18
2023-03-27T06:06:19.595Z,1.22
2023-03-27T06:08:21.074Z,1.27
2023-03-27T06:10:22.575Z,1.31
2023-03-27T06:12:24.857Z,1.34
2023-03-27T06:14:26.477Z,1.40
2023-03-27T06:16:28.315Z,1.45
2023-03-27T06:18:29.830Z,1.50
2023-03-27T06:20:31.565Z,1.55
2023-03-27T06:22:33.047Z,1.61
2023-03-27T06:24:34.544Z,1.66
2023-03-27T06:26:36.064Z,1.71
2023-03-27T06:28:39.166Z,1.74
2023-03-27T06:30:40.673Z,1.77
2023-03-27T06:32:47.629Z,1.81
2023-03-27T06:34:50.171Z,1.86
2023-03-27T06:36:51.631Z,1.85
2023-03-27T06:38:54.379Z,1.85
2023-03-27T06:40:56.175Z,1.90
2023-03-27T06:43:06.391Z,1.97
2023-03-27T06:45:09.427Z,2.04
2023-03-27T06:47:10.993Z,2.09
2023-03-27T06:49:12.507Z,2.17
2023-03-27T06:51:14.084Z,2.29
2023-03-27T06:53:26.702Z,2.41
2023-03-27T06:55:31.742Z,2.50
2023-03-27T06:57:33.240Z,2.48
2023-03-27T06:59:34.715Z,2.41
2023-03-27T07:01:36.228Z,2.35
2023-03-27T07:03:38.656Z,2.32
2023-03-27T07:05:41.066Z,2.23
2023-03-27T07:07:43.408Z,2.10
2023-03-27T07:09:44.967Z,1.97
2023-03-27T07:11:46.553Z,1.86
2023-03-27T07:13:48.021Z,1.77
2023-03-27T07:15:49.489Z,1.68
2023-03-27T07:17:59.725Z,1.69
2023-03-27T07:20:01.330Z,1.73
2023-03-27T07:22:02.837Z,1.81
2023-03-27T07:24:04.515Z,1.89
2023-03-27T07:26:06.747Z,1.97
2023-03-27T07:28:13.253Z,2.07
2023-03-27T07:30:15.025Z,2.17
2023-03-27T07:32:29.755Z,2.30
2023-03-27T07:34:38.567Z,2.40
2023-03-27T07:36:40.068Z,2.53
2023-03-27T07:38:42.195Z,2.65
2023-03-27T07:40:46.050Z,2.75
2023-03-27T07:42:49.648Z,2.86
2023-03-27T07:44:51.522Z,2.96
2023-03-27T07:46:53.269Z,3.08
2023-03-27T07:48:56.651Z,3.19
2023-03-27T07:51:10.689Z,3.27
2023-03-27T07:53:33.513Z,3.38
2023-03-27T07:55:37.943Z,3.48
2023-03-27T07:57:57.998Z,3.52
2023-03-27T08:00:04.140Z,3.58
2023-03-27T08:02:05.738Z,3.67
2023-03-27T08:04:07.412Z,3.72
2023-03-27T08:06:09.260Z,3.77
2023-03-27T08:08:11.209Z,3.80
2023-03-27T08:10:13.731Z,3.88
2023-03-27T08:12:15.669Z,3.92
2023-03-27T08:14:17.343Z,3.94
2023-03-27T08:16:19.563Z,3.97
2023-03-27T08:18:21.114Z,3.97
2023-03-27T08:20:24.037Z,3.96
2023-03-27T08:22:25.880Z,3.99
2023-03-27T08:24:27.328Z,4.04
2023-03-27T08:26:28.841Z,4.05
2023-03-27T08:28:32.564Z,4.06
2023-03-27T08:30:35.330Z,4.14
2023-03-27T08:32:38.638Z,4.16
2023-03-27T08:34:40.931Z,4.22
2023-03-27T08:36:42.417Z,4.28
2023-03-27T08:38:45.096Z,4.29
2023-03-27T08:40:52.263Z,4.34
2023-03-27T08:42:58.358Z,4.42
2023-03-27T08:45:09.247Z,4.46
2023-03-27T08:47:19.517Z,4.52
2023-03-27T08:49:22.191Z,4.58
2023-03-27T08:51:33.240Z,4.60
2023-03-27T08:53:43.813Z,4.71
2023-03-27T08:55:46.185Z,4.85
2023-03-27T08:57:50.246Z,4.90
2023-03-27T08:59:57.675Z,4.88
2023-03-27T09:02:15.787Z,4.40
2023-03-27T09:04:37.752Z,3.77
2023-03-27T09:07:02.395Z,3.29
2023-03-27T09:09:24.291Z,2.96
2023-03-27T09:11:48.478Z,2.92
2023-03-27T09:13:51.908Z,2.89
2023-03-27T09:16:02.357Z,2.97
2023-03-27T09:18:07.105Z,2.99
2023-03-27T09:20:19.162Z,2.87
2023-03-27T09:22:27.549Z,2.66
2023-03-27T09:24:58.035Z,2.37
2023-03-27T09:27:11.717Z,2.26
2023-03-27T09:29:22.268Z,2.20
2023-03-27T09:31:29.137Z,2.12
2023-03-27T09:33:31.210Z,2.10
2023-03-27T09:35:35.324Z,2.08
2023-03-27T09:37:37.114Z,2.03
2023-03-27T09:39:42.726Z,2.05
2023-03-27T09:41:51.088Z,2.06
2023-03-27T09:44:03.410Z,2.06
2023-03-27T09:46:06.376Z,2.08
2023-03-27T09:48:15.029Z,2.13
2023-03-27T09:50:31.431Z,2.27
2023-03-27T09:52:34.595Z,2.44
2023-03-27T09:54:53.760Z,2.63
2023-03-27T09:57:03.463Z,2.79
2023-03-27T09:59:13.320Z,2.93
2023-03-27T10:01:17.601Z,3.08
2023-03-27T10:03:21.039Z,3.20
2023-03-27T10:05:23.115Z,3.30
2023-03-27T10:07:25.852Z,3.41
2023-03-27T10:09:34.498Z,3.58
2023-03-27T10:11:36.271Z,3.71
2023-03-27T10:13:43.467Z,3.82
2023-03-27T10:15:45.027Z,3.96
2023-03-27T10:17:49.112Z,4.07
2023-03-27T10:19:58.045Z,4.20
2023-03-27T10:22:09.145Z,4.37
2023-03-27T10:24:26.148Z,4.53
2023-03-27T10:26:30.722Z,4.64
2023-03-27T10:28:36.726Z,4.83
2023-03-27T10:30:38.287Z,4.98
2023-03-27T10:32:47.612Z,5.24
2023-03-27T10:34:58.099Z,5.56
2023-03-27T10:37:01.601Z,5.66
2023-03-27T10:39:14.571Z,5.49
2023-03-27T10:41:28.635Z,5.22
2023-03-27T10:43:37.333Z,5.08
2023-03-27T10:45:56.688Z,5.03
2023-03-27T10:48:01.646Z,5.14
2023-03-27T10:50:06.854Z,5.33
2023-03-27T10:52:19.543Z,5.47
2023-03-27T10:55:04.562Z,5.67
2023-03-27T10:57:26.764Z,5.81
2023-03-27T11:00:01.370Z,5.71
2023-03-27T11:02:18.826Z,5.55
2023-03-27T11:04:39.410Z,5.32
2023-03-27T11:06:43.855Z,5.03
2023-03-27T11:08:55.310Z,4.88
2023-03-27T11:11:05.097Z,5.10
2023-03-27T11:13:30.395Z,5.39
2023-03-27T11:15:43.653Z,5.84
2023-03-27T11:17:57.219Z,6.25
2023-03-27T11:20:07.196Z,6.65
2023-03-27T11:22:20.315Z,7.01
2023-03-27T11:24:44.068Z,7.58
2023-03-27T11:27:02.003Z,8.09
2023-03-27T11:29:16.976Z,8.48
2023-03-27T11:31:34.338Z,8.80
2023-03-27T11:33:44.929Z,8.82
2023-03-27T11:35:54.132Z,8.86
2023-03-27T11:38:08.372Z,8.95
2023-03-27T11:40:29.109Z,9.39
2023-03-27T11:42:33.404Z,9.91
2023-03-27T11:44:34.907Z,10.17
2023-03-27T11:46:48.912Z,10.05
2023-03-27T11:48:50.864Z,10.26
2023-03-27T11:51:10.088Z,10.14
2023-03-27T11:53:38.071Z,9.47
2023-03-27T11:55:58.757Z,8.87
2023-03-27T11:58:32.030Z,8.42
2023-03-27T12:00:58.952Z,8.35
2023-03-27T12:03:30.127Z,8.22
2023-03-27T12:05:46.592Z,7.81
2023-03-27T12:08:16.795Z,7.59
2023-03-27T12:10:30.649Z,7.23
2023-03-27T12:13:00.716Z,6.82
2023-03-27T12:15:02.134Z,6.50
2023-03-27T12:17:39.358Z,6.35
2023-03-27T12:20:10.760Z,6.14
2023-03-27T12:22:38.805Z,6.04
2023-03-27T12:25:08.447Z,6.37
2023-03-27T12:27:47.466Z,6.82
2023-03-27T12:30:14.811Z,7.18
2023-03-27T12:33:05.097Z,7.55
2023-03-27T12:35:21.648Z,7.86
2023-03-27T12:37:31.147Z,7.92
2023-03-27T12:39:45.868Z,8.21
2023-03-27T12:41:47.947Z,8.26
2023-03-27T12:43:55.311Z,8.26
2023-03-27T12:46:09.000Z,8.20
2023-03-27T12:48:10.596Z,8.31
2023-03-27T12:50:25.902Z,8.60
2023-03-27T12:52:28.573Z,9.02
2023-03-27T12:54:32.309Z,9.09
2023-03-27T12:56:37.502Z,8.96
2023-03-27T12:58:40.574Z,8.78
2023-03-27T13:00:53.107Z,8.47
2023-03-27T13:03:27.477Z,8.06
2023-03-27T13:05:34.887Z,7.66
2023-03-27T13:07:43.423Z,7.47
2023-03-27T13:10:29.766Z,7.10
2023-03-27T13:12:45.270Z,6.74
2023-03-27T13:15:03.398Z,6.49
2023-03-27T13:17:21.345Z,6.49
2023-03-27T13:19:44.308Z,6.61
2023-03-27T13:21:52.503Z,6.79
2023-03-27T13:24:10.322Z,6.97
2023-03-27T13:26:48.619Z,7.23
2023-03-27T13:28:53.002Z,7.41
2023-03-27T13:30:57.192Z,7.42
2023-03-27T13:33:11.211Z,7.53
2023-03-27T13:35:41.250Z,7.79
2023-03-27T13:37:53.668Z,7.80
2023-03-27T13:39:55.352Z,7.52
2023-03-27T13:42:05.921Z,7.39
2023-03-27T13:44:29.753Z,7.31
2023-03-27T13:46:33.771Z,7.36
2023-03-27T13:49:04.724Z,7.56
2023-03-27T13:51:39.574Z,7.75
2023-03-27T13:53:46.667Z,7.93
2023-03-27T13:56:49.754Z,7.92
2023-03-27T13:59:28.293Z,8.06
2023-03-27T14:01:38.934Z,7.82
2023-03-27T14:04:10.242Z,7.54
2023-03-27T14:06:59.890Z,7.31
2023-03-27T14:09:20.407Z,6.96
2023-03-27T14:11:29.846Z,6.80
2023-03-27T14:13:40.319Z,6.74
2023-03-27T14:16:07.984Z,6.77
2023-03-27T14:18:55.910Z,7.00
2023-03-27T14:21:03.823Z,7.10
2023-03-27T14:23:13.253Z,7.06
2023-03-27T14:25:22.398Z,7.13
2023-03-27T14:27:24.393Z,7.05
2023-03-27T14:29:26.737Z,6.83
2023-03-27T14:31:35.385Z,6.65
2023-03-27T14:33:39.179Z,6.48
2023-03-27T14:35:46.593Z,6.33
2023-03-27T14:37:55.845Z,6.25
2023-03-27T14:39:59.626Z,6.21
2023-03-27T14:42:03.046Z,6.26
2023-03-27T14:44:04.745Z,6.27
2023-03-27T14:46:07.308Z,6.32
2023-03-27T14:48:21.268Z,6.33
2023-03-27T14:50:25.421Z,6.41
2023-03-27T14:52:35.050Z,6.53
2023-03-27T14:54:44.945Z,6.80
2023-03-27T14:56:57.212Z,7.11
2023-03-27T14:59:03.004Z,7.32
2023-03-27T15:01:05.124Z,7.35
2023-03-27T15:03:14.841Z,7.29
2023-03-27T15:05:18.325Z,7.26
2023-03-27T15:07:28.627Z,7.35
2023-03-27T15:09:31.095Z,7.35
2023-03-27T15:11:38.970Z,7.44
2023-03-27T15:13:40.534Z,7.55
2023-03-27T15:15:44.263Z,7.49
2023-03-27T15:17:46.254Z,7.36
2023-03-27T15:19:50.904Z,7.14
2023-03-27T15:22:00.577Z,6.97
2023-03-27T15:24:17.874Z,6.82
2023-03-27T15:26:26.960Z,6.65
2023-03-27T15:28:58.642Z,6.43
2023-03-27T15:31:03.396Z,6.49
2023-03-27T15:33:06.446Z,6.57
2023-03-27T15:35:19.663Z,6.66
2023-03-27T15:37:25.442Z,6.78
2023-03-27T15:39:27.032Z,6.88
2023-03-27T15:41:28.435Z,6.88
2023-03-27T15:43:30.880Z,6.95
2023-03-27T15:45:38.301Z,6.99
2023-03-27T15:47:40.578Z,7.02
2023-03-27T15:49:44.274Z,7.17
2023-03-27T15:51:45.984Z,7.33
2023-03-27T15:53:58.163Z,7.32
2023-03-27T15:56:03.593Z,7.22
2023-03-27T15:58:24.973Z,7.18
2023-03-27T16:00:28.840Z,7.19
2023-03-27T16:02:30.771Z,7.24
2023-03-27T16:04:55.551Z,7.28
2023-03-27T16:07:21.206Z,7.26
2023-03-27T16:09:29.322Z,7.22
2023-03-27T16:11:40.424Z,7.22
2023-03-27T16:13:51.679Z,7.22
2023-03-27T16:16:00.003Z,7.36
2023-03-27T16:18:13.499Z,7.44
2023-03-27T16:20:24.134Z,7.47
2023-03-27T16:22:29.881Z,7.45
2023-03-27T16:24:31.346Z,7.35
2023-03-27T16:26:33.080Z,7.16
2023-03-27T16:28:35.671Z,7.06
2023-03-27T16:30:40.428Z,6.91
2023-03-27T16:32:41.953Z,6.87
2023-03-27T16:34:44.338Z,6.95
2023-03-27T16:36:45.837Z,6.72
2023-03-27T16:38:47.547Z,6.12
2023-03-27T16:40:49.614Z,5.77
2023-03-27T16:42:51.096Z,5.58
2023-03-27T16:44:53.273Z,5.43
2023-03-27T16:46:54.739Z,5.32
2023-03-27T16:48:56.824Z,5.24
2023-03-27T16:50:58.345Z,5.33
2023-03-27T16:52:59.822Z,5.34
2023-03-27T16:55:02.534Z,5.42
2023-03-27T16:57:04.710Z,5.44
2023-03-27T16:59:06.471Z,5.58
2023-03-27T17:01:08.896Z,5.63
2023-03-27T17:03:11.425Z,5.54
2023-03-27T17:05:14.049Z,5.47
2023-03-27T17:07:15.960Z,5.41
2023-03-27T17:09:17.818Z,5.38
2023-03-27T17:11:19.334Z,5.29
2023-03-27T17:13:21.254Z,5.17
2023-03-27T17:15:23.343Z,5.14
2023-03-27T17:17:24.904Z,5.03
2023-03-27T17:19:26.470Z,4.98
2023-03-27T17:21:28.046Z,4.94
2023-03-27T17:23:29.601Z,4.94
2023-03-27T17:25:31.106Z,4.88
2023-03-27T17:27:33.633Z,4.86
2023-03-27T17:29:35.149Z,4.83
2023-03-27T17:31:37.120Z,4.78
2023-03-27T17:33:38.656Z,4.78
2023-03-27T17:35:41.479Z,4.73
2023-03-27T17:37:43.038Z,4.71
2023-03-27T17:39:44.647Z,4.76
2023-03-27T17:41:46.179Z,4.77
2023-03-27T17:43:47.733Z,4.78
2023-03-27T17:45:50.060Z,4.79
2023-03-27T17:47:51.664Z,4.82
2023-03-27T17:49:54.422Z,4.80
2023-03-27T17:51:56.166Z,4.80
2023-03-27T17:53:57.862Z,4.83
2023-03-27T17:55:59.824Z,4.77
2023-03-27T17:58:08.811Z,4.70
2023-03-27T18:00:11.633Z,4.65
2023-03-27T18:02:18.480Z,4.57
2023-03-27T18:04:20.026Z,4.50
2023-03-27T18:06:21.750Z,4.44
2023-03-27T18:08:23.208Z,4.41
2023-03-27T18:10:24.739Z,4.37
2023-03-27T18:12:26.215Z,4.37
2023-03-27T18:14:27.725Z,4.36
2023-03-27T18:16:29.258Z,4.36
2023-03-27T18:18:31.597Z,4.41
2023-03-27T18:20:33.181Z,4.43
2023-03-27T18:22:34.692Z,4.43
2023-03-27T18:24:36.158Z,4.37
2023-03-27T18:26:37.768Z,4.22
2023-03-27T18:28:39.252Z,4.08
2023-03-27T18:30:42.285Z,3.97
2023-03-27T18:32:45.673Z,3.90
2023-03-27T18:34:47.189Z,3.85
2023-03-27T18:36:51.727Z,3.77
2023-03-27T18:38:53.344Z,3.75
2023-03-27T18:40:56.094Z,3.75
2023-03-27T18:42:57.840Z,3.70
2023-03-27T18:44:59.396Z,3.69
2023-03-27T18:47:01.066Z,3.66
2023-03-27T18:49:13.578Z,3.65
2023-03-27T18:51:19.781Z,3.63
2023-03-27T18:53:21.632Z,3.58
2023-03-27T18:55:24.067Z,3.61
2023-03-27T18:57:25.684Z,3.61
2023-03-27T18:59:29.746Z,3.57
2023-03-27T19:01:34.742Z,3.58
2023-03-27T19:03:37.627Z,3.59
2023-03-27T19:05:39.127Z,3.60
2023-03-27T19:07:45.024Z,3.63
2023-03-27T19:09:46.925Z,3.63
2023-03-27T19:11:48.429Z,3.60
2023-03-27T19:13:49.984Z,3.61
2023-03-27T19:15:51.809Z,3.63
2023-03-27T19:17:53.379Z,3.67
2023-03-27T19:19:55.164Z,3.69
2023-03-27T19:21:56.807Z,3.69
2023-03-27T19:23:58.302Z,3.67
2023-03-27T19:26:11.442Z,3.66
2023-03-27T19:28:12.909Z,3.68
2023-03-27T19:30:14.868Z,3.68
2023-03-27T19:32:16.591Z,3.69
2023-03-27T19:34:18.061Z,3.67
2023-03-27T19:36:19.613Z,3.66
2023-03-27T19:38:21.600Z,3.68
2023-03-27T19:40:23.369Z,3.70
2023-03-27T19:42:25.546Z,3.74
2023-03-27T19:44:28.018Z,3.74
2023-03-27T19:46:29.647Z,3.74
2023-03-27T19:48:31.226Z,3.75
2023-03-27T19:50:33.077Z,3.75
2023-03-27T19:52:36.021Z,3.74
2023-03-27T19:54:37.508Z,3.73
2023-03-27T19:56:39.297Z,3.73
2023-03-27T19:58:40.819Z,3.73
2023-03-27T20:00:44.383Z,3.76
2023-03-27T20:02:45.923Z,3.77
2023-03-27T20:04:47.414Z,3.82
2023-03-27T20:06:49.414Z,3.78
2023-03-27T20:08:50.949Z,3.68
2023-03-27T20:10:52.443Z,3.61
2023-03-27T20:12:53.981Z,3.50
2023-03-27T20:15:07.500Z,3.39
2023-03-27T20:17:27.665Z,3.27
2023-03-27T20:19:31.049Z,3.24
2023-03-27T20:21:36.044Z,3.21
2023-03-27T20:23:38.488Z,3.19
2023-03-27T20:25:41.426Z,3.13
2023-03-27T20:27:42.954Z,3.12
2023-03-27T20:29:44.394Z,3.12
2023-03-27T20:31:46.376Z,3.12
2023-03-27T20:33:48.116Z,3.11
2023-03-27T20:35:49.658Z,3.15
2023-03-27T20:37:56.464Z,3.21
2023-03-27T20:40:01.813Z,3.23
2023-03-27T20:42:03.746Z,3.22
2023-03-27T20:44:15.161Z,3.21
2023-03-27T20:46:17.186Z,3.19
2023-03-27T20:48:21.834Z,3.17
2023-03-27T20:50:23.821Z,3.18
2023-03-27T20:52:26.051Z,3.24
2023-03-27T20:54:28.697Z,3.25
2023-03-27T20:56:30.660Z,3.23
2023-03-27T20:58:34.699Z,3.21
2023-03-27T21:00:36.515Z,3.17
2023-03-27T21:02:38.022Z,3.10
2023-03-27T21:04:39.676Z,3.05
2023-03-27T21:06:42.186Z,3.00
2023-03-27T21:08:43.910Z,2.99
2023-03-27T21:10:53.814Z,3.00
2023-03-27T21:12:56.648Z,3.02
2023-03-27T21:14:58.150Z,3.07
2023-03-27T21:16:59.726Z,3.01
2023-03-27T21:19:01.389Z,2.90
2023-03-27T21:21:03.033Z,2.82
2023-03-27T21:23:04.633Z,2.75
2023-03-27T21:25:06.774Z,2.72
2023-03-27T21:27:08.231Z,2.70
2023-03-27T21:29:10.841Z,2.67
2023-03-27T21:31:12.509Z,2.60
2023-03-27T21:33:15.858Z,2.57
2023-03-27T21:35:17.721Z,2.58
2023-03-27T21:37:19.231Z,2.59
2023-03-27T21:39:20.784Z,2.61
2023-03-27T21:41:22.333Z,2.61
2023-03-27T21:43:23.848Z,2.60
2023-03-27T21:45:25.811Z,2.60
2023-03-27T21:47:37.266Z,2.57
2023-03-27T21:49:46.387Z,2.59
2023-03-27T21:51:47.891Z,2.56
2023-03-27T21:53:49.398Z,2.55
2023-03-27T21:55:50.888Z,2.53
2023-03-27T21:57:52.430Z,2.54
2023-03-27T21:59:53.919Z,2.57
2023-03-27T22:01:56.086Z,2.56
2023-03-27T22:04:02.048Z,2.52
2023-03-27T22:06:11.824Z,2.54
2023-03-27T22:08:15.374Z,2.54
2023-03-27T22:10:17.015Z,2.54
2023-03-27T22:12:19.213Z,2.56
2023-03-27T22:14:20.683Z,2.53
2023-03-27T22:16:22.323Z,2.50
2023-03-27T22:18:24.781Z,2.48
2023-03-27T22:20:26.376Z,2.50
2023-03-27T22:22:27.991Z,2.52
2023-03-27T22:24:29.561Z,2.52
2023-03-27T22:26:34.082Z,2.53
2023-03-27T22:28:35.805Z,2.51
2023-03-27T22:30:37.285Z,2.51
2023-03-27T22:32:40.641Z,2.50
2023-03-27T22:34:42.168Z,2.54
2023-03-27T22:36:44.150Z,2.61
2023-03-27T22:38:46.403Z,2.66
2023-03-27T22:40:47.877Z,2.65
2023-03-27T22:42:49.336Z,2.67
2023-03-27T22:44:50.802Z,2.60
2023-03-27T22:46:53.016Z,2.45
2023-03-27T22:48:56.315Z,2.35
2023-03-27T22:50:58.006Z,2.30
2023-03-27T22:52:59.455Z,2.28
2023-03-27T22:55:00.934Z,2.25
2023-03-27T22:57:02.481Z,2.20
2023-03-27T22:59:04.010Z,2.20
2023-03-27T23:01:05.948Z,2.23
2023-03-27T23:03:07.574Z,2.22
2023-03-27T23:05:09.444Z,2.23
2023-03-27T23:07:10.980Z,2.25
2023-03-27T23:09:12.481Z,2.26
2023-03-27T23:11:14.277Z,2.34
2023-03-27T23:13:15.773Z,2.33
2023-03-27T23:15:17.334Z,2.26
2023-03-27T23:17:31.877Z,2.15
2023-03-27T23:19:33.371Z,2.06
2023-03-27T23:21:34.859Z,2.03
2023-03-27T23:23:38.332Z,2.02
2023-03-27T23:25:42.197Z,2.01
2023-03-27T23:27:43.749Z,1.99
2023-03-27T23:29:45.796Z,1.95
2023-03-27T23:31:47.437Z,1.94
2023-03-27T23:33:51.064Z,1.95
2023-03-27T23:35:54.372Z,1.94
2023-03-27T23:37:55.917Z,1.93
2023-03-27T23:39:57.409Z,1.92
2023-03-27T23:41:58.862Z,1.90
2023-03-27T23:44:00.358Z,1.85
2023-03-27T23:46:02.232Z,1.83
2023-03-27T23:48:03.997Z,1.81
2023-03-27T23:50:06.181Z,1.81
2023-03-27T23:52:07.653Z,1.82
2023-03-27T23:54:09.106Z,1.84
2023-03-27T23:56:10.668Z,1.86
2023-03-27T23:58:12.197Z,1.89
